sensor_id;sensor_type;location;lat;lon;timestamp;pressure;altitude;pressure_sealevel;temperature;humidity
73106;BME280;61559;50.476;15.588;2023-07-31T00:01:31;97460.64;;;13.22;88.98
73106;BME280;61559;50.476;15.588;2023-07-31T00:04:02;97463.16;;;13.22;89.19
73106;BME280;61559;50.476;15.588;2023-07-31T00:06:33;97460.94;;;13.22;89.31
73106;BME280;61559;50.476;15.588;2023-07-31T00:09:04;97464.94;;;13.25;89.46
73106;BME280;61559;50.476;15.588;2023-07-31T00:11:36;97463.73;;;13.26;89.59
73106;BME280;61559;50.476;15.588;2023-07-31T00:14:07;97464.73;;;13.27;89.37
73106;BME280;61559;50.476;15.588;2023-07-31T00:16:38;97468.86;;;13.30;89.69
73106;BME280;61559;50.476;15.588;2023-07-31T00:19:11;97470.31;;;13.31;89.67
73106;BME280;61559;50.476;15.588;2023-07-31T00:21:43;97470.20;;;13.30;89.54
73106;BME280;61559;50.476;15.588;2023-07-31T00:24:14;97471.67;;;13.29;89.88
73106;BME280;61559;50.476;15.588;2023-07-31T00:26:45;97467.75;;;13.32;89.95
73106;BME280;61559;50.476;15.588;2023-07-31T00:29:16;97471.86;;;13.33;89.87
73106;BME280;61559;50.476;15.588;2023-07-31T00:31:47;97468.11;;;13.36;89.89
73106;BME280;61559;50.476;15.588;2023-07-31T00:34:18;97469.58;;;13.39;89.82
73106;BME280;61559;50.476;15.588;2023-07-31T00:36:50;97471.23;;;13.42;89.85
73106;BME280;61559;50.476;15.588;2023-07-31T00:39:21;97470.05;;;13.44;89.89
73106;BME280;61559;50.476;15.588;2023-07-31T00:41:52;97467.10;;;13.48;89.77
73106;BME280;61559;50.476;15.588;2023-07-31T00:44:22;97469.25;;;13.50;89.71
73106;BME280;61559;50.476;15.588;2023-07-31T00:46:54;97468.80;;;13.52;89.56
73106;BME280;61559;50.476;15.588;2023-07-31T00:49:28;97468.29;;;13.53;89.34
73106;BME280;61559;50.476;15.588;2023-07-31T00:51:59;97464.65;;;13.52;89.36
73106;BME280;61559;50.476;15.588;2023-07-31T00:54:32;97462.23;;;13.51;89.22
73106;BME280;61559;50.476;15.588;2023-07-31T00:57:04;97461.34;;;13.47;89.14
73106;BME280;61559;50.476;15.588;2023-07-31T00:59:37;97460.21;;;13.44;88.95
73106;BME280;61559;50.476;15.588;2023-07-31T01:02:08;97467.02;;;13.41;88.83
73106;BME280;61559;50.476;15.588;2023-07-31T01:04:41;97465.66;;;13.38;88.65
73106;BME280;61559;50.476;15.588;2023-07-31T01:07:17;97465.98;;;13.34;88.49
73106;BME280;61559;50.476;15.588;2023-07-31T01:09:59;97467.64;;;13.31;88.57
73106;BME280;61559;50.476;15.588;2023-07-31T01:12:35;97465.67;;;13.27;88.55
73106;BME280;61559;50.476;15.588;2023-07-31T01:15:10;97464.08;;;13.23;88.46
73106;BME280;61559;50.476;15.588;2023-07-31T01:17:42;97459.70;;;13.18;88.46
73106;BME280;61559;50.476;15.588;2023-07-31T01:20:17;97466.85;;;13.13;88.52
73106;BME280;61559;50.476;15.588;2023-07-31T01:23:08;97462.21;;;13.09;88.66
73106;BME280;61559;50.476;15.588;2023-07-31T01:25:53;97463.05;;;13.02;88.43
73106;BME280;61559;50.476;15.588;2023-07-31T01:28:30;97463.23;;;12.98;88.46
73106;BME280;61559;50.476;15.588;2023-07-31T01:31:05;97458.66;;;12.93;88.47
73106;BME280;61559;50.476;15.588;2023-07-31T01:33:38;97461.30;;;12.88;88.46
73106;BME280;61559;50.476;15.588;2023-07-31T01:36:10;97457.66;;;12.83;88.61
73106;BME280;61559;50.476;15.588;2023-07-31T01:38:42;97454.14;;;12.79;88.87
73106;BME280;61559;50.476;15.588;2023-07-31T01:41:13;97450.66;;;12.74;88.68
73106;BME280;61559;50.476;15.588;2023-07-31T01:43:44;97449.94;;;12.70;88.63
73106;BME280;61559;50.476;15.588;2023-07-31T01:46:16;97448.77;;;12.68;88.77
73106;BME280;61559;50.476;15.588;2023-07-31T01:48:48;97447.80;;;12.66;88.73
73106;BME280;61559;50.476;15.588;2023-07-31T01:51:19;97450.61;;;12.64;88.82
73106;BME280;61559;50.476;15.588;2023-07-31T01:53:50;97446.77;;;12.61;88.97
73106;BME280;61559;50.476;15.588;2023-07-31T01:56:21;97446.06;;;12.60;88.98
73106;BME280;61559;50.476;15.588;2023-07-31T01:58:54;97444.53;;;12.58;89.18
73106;BME280;61559;50.476;15.588;2023-07-31T02:01:25;97440.20;;;12.57;89.36
73106;BME280;61559;50.476;15.588;2023-07-31T02:03:56;97442.44;;;12.55;89.47
73106;BME280;61559;50.476;15.588;2023-07-31T02:06:28;97442.00;;;12.53;89.46
73106;BME280;61559;50.476;15.588;2023-07-31T02:09:00;97442.27;;;12.53;89.70
73106;BME280;61559;50.476;15.588;2023-07-31T02:11:31;97443.25;;;12.53;89.83
73106;BME280;61559;50.476;15.588;2023-07-31T02:14:02;97446.14;;;12.53;90.04
73106;BME280;61559;50.476;15.588;2023-07-31T02:16:35;97449.07;;;12.55;90.11
73106;BME280;61559;50.476;15.588;2023-07-31T02:19:07;97447.71;;;12.56;90.10
73106;BME280;61559;50.476;15.588;2023-07-31T02:21:38;97450.11;;;12.57;90.12
73106;BME280;61559;50.476;15.588;2023-07-31T02:24:09;97447.91;;;12.58;90.34
73106;BME280;61559;50.476;15.588;2023-07-31T02:26:40;97444.52;;;12.57;90.30
73106;BME280;61559;50.476;15.588;2023-07-31T02:29:12;97445.25;;;12.57;90.21
73106;BME280;61559;50.476;15.588;2023-07-31T02:31:43;97447.61;;;12.57;90.29
73106;BME280;61559;50.476;15.588;2023-07-31T02:34:14;97445.90;;;12.57;90.32
73106;BME280;61559;50.476;15.588;2023-07-31T02:36:45;97441.21;;;12.56;90.28
73106;BME280;61559;50.476;15.588;2023-07-31T02:39:16;97444.08;;;12.58;90.38
73106;BME280;61559;50.476;15.588;2023-07-31T02:41:48;97445.17;;;12.55;90.11
73106;BME280;61559;50.476;15.588;2023-07-31T02:44:19;97442.61;;;12.53;89.98
73106;BME280;61559;50.476;15.588;2023-07-31T02:46:50;97447.95;;;12.54;90.27
73106;BME280;61559;50.476;15.588;2023-07-31T02:49:22;97444.59;;;12.55;90.23
73106;BME280;61559;50.476;15.588;2023-07-31T02:51:53;97443.17;;;12.55;90.22
73106;BME280;61559;50.476;15.588;2023-07-31T02:54:24;97439.04;;;12.51;90.14
73106;BME280;61559;50.476;15.588;2023-07-31T02:56:55;97438.29;;;12.47;90.22
73106;BME280;61559;50.476;15.588;2023-07-31T02:59:27;97439.02;;;12.45;90.36
73106;BME280;61559;50.476;15.588;2023-07-31T03:01:58;97439.62;;;12.45;90.39
73106;BME280;61559;50.476;15.588;2023-07-31T03:04:30;97440.63;;;12.44;90.38
73106;BME280;61559;50.476;15.588;2023-07-31T03:07:01;97444.67;;;12.44;90.46
73106;BME280;61559;50.476;15.588;2023-07-31T03:09:32;97446.98;;;12.43;90.33
73106;BME280;61559;50.476;15.588;2023-07-31T03:12:05;97450.39;;;12.43;90.43
73106;BME280;61559;50.476;15.588;2023-07-31T03:14:36;97445.98;;;12.43;90.49
73106;BME280;61559;50.476;15.588;2023-07-31T03:17:07;97442.06;;;12.43;90.37
73106;BME280;61559;50.476;15.588;2023-07-31T03:19:38;97442.33;;;12.44;90.44
73106;BME280;61559;50.476;15.588;2023-07-31T03:22:10;97438.10;;;12.44;90.34
73106;BME280;61559;50.476;15.588;2023-07-31T03:24:41;97435.46;;;12.44;90.38
73106;BME280;61559;50.476;15.588;2023-07-31T03:27:12;97433.15;;;12.44;90.38
73106;BME280;61559;50.476;15.588;2023-07-31T03:29:43;97432.61;;;12.43;90.21
73106;BME280;61559;50.476;15.588;2023-07-31T03:32:14;97428.73;;;12.42;90.15
73106;BME280;61559;50.476;15.588;2023-07-31T03:34:45;97428.84;;;12.41;90.15
73106;BME280;61559;50.476;15.588;2023-07-31T03:37:16;97431.61;;;12.40;90.08
73106;BME280;61559;50.476;15.588;2023-07-31T03:39:48;97432.13;;;12.40;90.10
73106;BME280;61559;50.476;15.588;2023-07-31T03:42:19;97432.73;;;12.40;90.00
73106;BME280;61559;50.476;15.588;2023-07-31T03:44:50;97435.55;;;12.41;90.14
73106;BME280;61559;50.476;15.588;2023-07-31T03:47:21;97441.89;;;12.42;90.06
73106;BME280;61559;50.476;15.588;2023-07-31T03:49:53;97442.04;;;12.42;90.00
73106;BME280;61559;50.476;15.588;2023-07-31T03:52:24;97440.17;;;12.44;90.10
73106;BME280;61559;50.476;15.588;2023-07-31T03:54:55;97442.17;;;12.44;90.04
73106;BME280;61559;50.476;15.588;2023-07-31T03:57:26;97440.14;;;12.45;90.07
73106;BME280;61559;50.476;15.588;2023-07-31T03:59:57;97440.61;;;12.46;89.95
73106;BME280;61559;50.476;15.588;2023-07-31T04:02:31;97439.05;;;12.48;90.01
73106;BME280;61559;50.476;15.588;2023-07-31T04:05:03;97433.70;;;12.50;89.96
73106;BME280;61559;50.476;15.588;2023-07-31T04:07:35;97435.49;;;12.50;89.89
73106;BME280;61559;50.476;15.588;2023-07-31T04:10:06;97436.83;;;12.51;89.85
73106;BME280;61559;50.476;15.588;2023-07-31T04:12:41;97442.77;;;12.52;89.68
73106;BME280;61559;50.476;15.588;2023-07-31T04:15:13;97439.73;;;12.54;89.61
73106;BME280;61559;50.476;15.588;2023-07-31T04:17:44;97446.19;;;12.57;89.69
73106;BME280;61559;50.476;15.588;2023-07-31T04:20:15;97444.50;;;12.57;89.61
73106;BME280;61559;50.476;15.588;2023-07-31T04:22:46;97448.39;;;12.59;89.61
73106;BME280;61559;50.476;15.588;2023-07-31T04:25:17;97445.52;;;12.59;89.64
73106;BME280;61559;50.476;15.588;2023-07-31T04:27:48;97449.86;;;12.61;89.50
73106;BME280;61559;50.476;15.588;2023-07-31T04:30:19;97452.48;;;12.62;89.45
73106;BME280;61559;50.476;15.588;2023-07-31T04:32:51;97451.40;;;12.62;89.11
73106;BME280;61559;50.476;15.588;2023-07-31T04:35:22;97451.92;;;12.63;89.14
73106;BME280;61559;50.476;15.588;2023-07-31T04:37:53;97451.85;;;12.65;89.21
73106;BME280;61559;50.476;15.588;2023-07-31T04:40:24;97449.59;;;12.66;89.13
73106;BME280;61559;50.476;15.588;2023-07-31T04:42:58;97449.92;;;12.65;89.09
73106;BME280;61559;50.476;15.588;2023-07-31T04:45:30;97450.30;;;12.65;89.12
73106;BME280;61559;50.476;15.588;2023-07-31T04:48:01;97448.92;;;12.66;89.07
73106;BME280;61559;50.476;15.588;2023-07-31T04:50:32;97449.20;;;12.65;88.89
73106;BME280;61559;50.476;15.588;2023-07-31T04:53:04;97447.60;;;12.64;88.98
73106;BME280;61559;50.476;15.588;2023-07-31T04:55:35;97446.51;;;12.64;89.05
73106;BME280;61559;50.476;15.588;2023-07-31T04:58:06;97449.70;;;12.67;89.08
73106;BME280;61559;50.476;15.588;2023-07-31T05:00:37;97446.75;;;12.69;89.27
73106;BME280;61559;50.476;15.588;2023-07-31T05:03:08;97443.66;;;12.72;89.13
73106;BME280;61559;50.476;15.588;2023-07-31T05:05:40;97440.83;;;12.73;88.99
73106;BME280;61559;50.476;15.588;2023-07-31T05:08:11;97446.25;;;12.74;89.01
73106;BME280;61559;50.476;15.588;2023-07-31T05:10:43;97446.70;;;12.77;89.23
73106;BME280;61559;50.476;15.588;2023-07-31T05:13:14;97443.70;;;12.80;89.26
73106;BME280;61559;50.476;15.588;2023-07-31T05:15:46;97442.08;;;12.83;89.19
73106;BME280;61559;50.476;15.588;2023-07-31T05:18:19;97433.52;;;12.85;89.27
73106;BME280;61559;50.476;15.588;2023-07-31T05:20:51;97439.00;;;12.88;89.27
73106;BME280;61559;50.476;15.588;2023-07-31T05:23:22;97441.12;;;12.92;89.24
73106;BME280;61559;50.476;15.588;2023-07-31T05:25:53;97441.52;;;12.95;89.39
73106;BME280;61559;50.476;15.588;2023-07-31T05:28:24;97442.98;;;12.97;89.44
73106;BME280;61559;50.476;15.588;2023-07-31T05:31:01;97443.30;;;13.01;89.54
73106;BME280;61559;50.476;15.588;2023-07-31T05:33:32;97444.37;;;13.03;89.53
73106;BME280;61559;50.476;15.588;2023-07-31T05:36:04;97439.77;;;13.06;89.56
73106;BME280;61559;50.476;15.588;2023-07-31T05:38:35;97438.89;;;13.11;89.40
73106;BME280;61559;50.476;15.588;2023-07-31T05:41:06;97444.68;;;13.17;89.39
73106;BME280;61559;50.476;15.588;2023-07-31T05:43:37;97447.34;;;13.22;89.20
73106;BME280;61559;50.476;15.588;2023-07-31T05:46:08;97446.48;;;13.25;89.24
73106;BME280;61559;50.476;15.588;2023-07-31T05:48:41;97441.62;;;13.31;89.33
73106;BME280;61559;50.476;15.588;2023-07-31T05:51:13;97439.38;;;13.37;89.55
73106;BME280;61559;50.476;15.588;2023-07-31T05:53:44;97441.43;;;13.44;89.59
73106;BME280;61559;50.476;15.588;2023-07-31T05:56:18;97442.77;;;13.52;89.58
73106;BME280;61559;50.476;15.588;2023-07-31T05:58:51;97448.59;;;13.59;89.49
73106;BME280;61559;50.476;15.588;2023-07-31T06:01:23;97448.80;;;13.64;89.15
73106;BME280;61559;50.476;15.588;2023-07-31T06:03:54;97449.30;;;13.71;89.10
73106;BME280;61559;50.476;15.588;2023-07-31T06:06:25;97448.16;;;13.81;89.47
73106;BME280;61559;50.476;15.588;2023-07-31T06:08:56;97448.68;;;13.89;89.28
73106;BME280;61559;50.476;15.588;2023-07-31T06:11:28;97450.87;;;13.99;89.19
73106;BME280;61559;50.476;15.588;2023-07-31T06:14:00;97450.83;;;14.06;88.76
73106;BME280;61559;50.476;15.588;2023-07-31T06:16:31;97452.22;;;14.14;88.63
73106;BME280;61559;50.476;15.588;2023-07-31T06:19:02;97451.73;;;14.23;88.68
73106;BME280;61559;50.476;15.588;2023-07-31T06:21:36;97453.23;;;14.35;88.90
73106;BME280;61559;50.476;15.588;2023-07-31T06:24:08;97453.68;;;14.49;88.76
73106;BME280;61559;50.476;15.588;2023-07-31T06:26:39;97460.38;;;14.62;88.46
73106;BME280;61559;50.476;15.588;2023-07-31T06:29:11;97456.91;;;14.75;88.11
73106;BME280;61559;50.476;15.588;2023-07-31T06:31:42;97459.58;;;14.91;87.73
73106;BME280;61559;50.476;15.588;2023-07-31T06:34:13;97454.35;;;15.08;87.09
73106;BME280;61559;50.476;15.588;2023-07-31T06:36:45;97453.01;;;15.25;86.38
73106;BME280;61559;50.476;15.588;2023-07-31T06:39:16;97445.40;;;15.39;86.16
73106;BME280;61559;50.476;15.588;2023-07-31T06:41:47;97445.14;;;15.52;85.21
73106;BME280;61559;50.476;15.588;2023-07-31T06:44:21;97444.00;;;15.61;84.25
73106;BME280;61559;50.476;15.588;2023-07-31T06:46:52;97441.33;;;15.68;83.63
73106;BME280;61559;50.476;15.588;2023-07-31T06:49:23;97441.73;;;15.73;83.06
73106;BME280;61559;50.476;15.588;2023-07-31T06:51:54;97441.96;;;15.82;83.19
73106;BME280;61559;50.476;15.588;2023-07-31T06:54:26;97438.38;;;15.83;81.97
73106;BME280;61559;50.476;15.588;2023-07-31T06:56:57;97432.58;;;15.79;81.13
73106;BME280;61559;50.476;15.588;2023-07-31T06:59:28;97430.27;;;15.75;81.47
73106;BME280;61559;50.476;15.588;2023-07-31T07:02:00;97427.48;;;15.77;81.83
73106;BME280;61559;50.476;15.588;2023-07-31T07:04:35;97426.13;;;15.80;81.45
73106;BME280;61559;50.476;15.588;2023-07-31T07:07:07;97428.79;;;15.83;80.93
73106;BME280;61559;50.476;15.588;2023-07-31T07:09:38;97425.39;;;15.88;80.77
73106;BME280;61559;50.476;15.588;2023-07-31T07:12:10;97430.50;;;15.91;80.77
73106;BME280;61559;50.476;15.588;2023-07-31T07:14:41;97428.41;;;15.94;80.83
73106;BME280;61559;50.476;15.588;2023-07-31T07:17:12;97431.17;;;15.98;80.87
73106;BME280;61559;50.476;15.588;2023-07-31T07:19:47;97424.91;;;15.97;79.40
73106;BME280;61559;50.476;15.588;2023-07-31T07:22:19;97431.67;;;15.86;78.86
73106;BME280;61559;50.476;15.588;2023-07-31T07:24:51;97434.98;;;15.78;79.46
73106;BME280;61559;50.476;15.588;2023-07-31T07:27:22;97435.61;;;15.72;79.67
73106;BME280;61559;50.476;15.588;2023-07-31T07:29:53;97435.20;;;15.70;79.87
73106;BME280;61559;50.476;15.588;2023-07-31T07:32:24;97431.44;;;15.70;80.13
73106;BME280;61559;50.476;15.588;2023-07-31T07:34:56;97423.41;;;15.70;80.14
73106;BME280;61559;50.476;15.588;2023-07-31T07:37:27;97423.17;;;15.69;79.59
73106;BME280;61559;50.476;15.588;2023-07-31T07:39:59;97420.67;;;15.70;79.89
73106;BME280;61559;50.476;15.588;2023-07-31T07:42:31;97423.13;;;15.74;79.99
73106;BME280;61559;50.476;15.588;2023-07-31T07:45:03;97418.19;;;15.76;79.19
73106;BME280;61559;50.476;15.588;2023-07-31T07:47:34;97423.07;;;15.75;78.80
73106;BME280;61559;50.476;15.588;2023-07-31T07:50:07;97425.25;;;15.72;78.90
73106;BME280;61559;50.476;15.588;2023-07-31T07:52:39;97425.39;;;15.72;79.14
73106;BME280;61559;50.476;15.588;2023-07-31T07:55:10;97427.01;;;15.71;79.24
73106;BME280;61559;50.476;15.588;2023-07-31T07:57:46;97432.28;;;15.72;79.33
73106;BME280;61559;50.476;15.588;2023-07-31T08:00:20;97435.61;;;15.68;79.23
73106;BME280;61559;50.476;15.588;2023-07-31T08:02:52;97430.11;;;15.67;79.49
73106;BME280;61559;50.476;15.588;2023-07-31T08:05:23;97428.15;;;15.69;79.59
73106;BME280;61559;50.476;15.588;2023-07-31T08:07:54;97429.98;;;15.76;79.29
73106;BME280;61559;50.476;15.588;2023-07-31T08:10:26;97430.45;;;15.85;79.33
73106;BME280;61559;50.476;15.588;2023-07-31T08:12:57;97431.48;;;15.95;79.36
73106;BME280;61559;50.476;15.588;2023-07-31T08:15:28;97428.91;;;16.05;79.65
73106;BME280;61559;50.476;15.588;2023-07-31T08:17:59;97422.48;;;16.19;79.08
73106;BME280;61559;50.476;15.588;2023-07-31T08:20:30;97415.89;;;16.27;77.63
73106;BME280;61559;50.476;15.588;2023-07-31T08:23:01;97419.39;;;16.32;77.12
73106;BME280;61559;50.476;15.588;2023-07-31T08:25:35;97418.39;;;16.39;76.89
73106;BME280;61559;50.476;15.588;2023-07-31T08:28:07;97421.02;;;16.47;76.78
73106;BME280;61559;50.476;15.588;2023-07-31T08:30:38;97424.71;;;16.54;76.25
73106;BME280;61559;50.476;15.588;2023-07-31T08:33:09;97422.50;;;16.55;75.42
73106;BME280;61559;50.476;15.588;2023-07-31T08:35:41;97428.60;;;16.61;75.98
73106;BME280;61559;50.476;15.588;2023-07-31T08:38:13;97432.09;;;16.67;75.66
73106;BME280;61559;50.476;15.588;2023-07-31T08:40:44;97432.45;;;16.71;75.15
73106;BME280;61559;50.476;15.588;2023-07-31T08:43:15;97435.59;;;16.73;75.64
73106;BME280;61559;50.476;15.588;2023-07-31T08:45:48;97432.92;;;16.78;75.52
73106;BME280;61559;50.476;15.588;2023-07-31T08:48:20;97430.23;;;16.86;75.23
73106;BME280;61559;50.476;15.588;2023-07-31T08:50:52;97427.73;;;16.92;74.83
73106;BME280;61559;50.476;15.588;2023-07-31T08:53:24;97424.63;;;16.98;74.25
73106;BME280;61559;50.476;15.588;2023-07-31T08:55:55;97424.05;;;17.11;75.02
73106;BME280;61559;50.476;15.588;2023-07-31T08:58:29;97423.13;;;17.24;74.23
73106;BME280;61559;50.476;15.588;2023-07-31T09:01:03;97422.58;;;17.34;74.28
73106;BME280;61559;50.476;15.588;2023-07-31T09:03:35;97422.67;;;17.47;73.83
73106;BME280;61559;50.476;15.588;2023-07-31T09:06:08;97426.34;;;17.60;73.94
73106;BME280;61559;50.476;15.588;2023-07-31T09:08:42;97426.45;;;17.73;73.58
73106;BME280;61559;50.476;15.588;2023-07-31T09:11:13;97428.45;;;17.84;73.38
73106;BME280;61559;50.476;15.588;2023-07-31T09:13:45;97429.59;;;17.93;73.00
73106;BME280;61559;50.476;15.588;2023-07-31T09:16:16;97427.21;;;18.01;72.41
73106;BME280;61559;50.476;15.588;2023-07-31T09:18:56;97428.34;;;18.09;72.75
73106;BME280;61559;50.476;15.588;2023-07-31T09:21:29;97431.13;;;18.20;72.04
73106;BME280;61559;50.476;15.588;2023-07-31T09:24:00;97429.85;;;18.27;72.05
73106;BME280;61559;50.476;15.588;2023-07-31T09:26:32;97431.58;;;18.35;71.08
73106;BME280;61559;50.476;15.588;2023-07-31T09:29:06;97425.29;;;18.42;70.76
73106;BME280;61559;50.476;15.588;2023-07-31T09:31:42;97423.17;;;18.47;70.08
73106;BME280;61559;50.476;15.588;2023-07-31T09:34:13;97417.27;;;18.52;69.78
73106;BME280;61559;50.476;15.588;2023-07-31T09:36:45;97409.33;;;18.57;69.64
73106;BME280;61559;50.476;15.588;2023-07-31T09:39:17;97410.31;;;18.58;68.77
73106;BME280;61559;50.476;15.588;2023-07-31T09:41:55;97410.06;;;18.62;68.97
73106;BME280;61559;50.476;15.588;2023-07-31T09:44:40;97405.02;;;18.74;69.14
73106;BME280;61559;50.476;15.588;2023-07-31T09:47:24;97402.19;;;18.84;68.26
73106;BME280;61559;50.476;15.588;2023-07-31T09:49:56;97401.77;;;18.97;69.10
73106;BME280;61559;50.476;15.588;2023-07-31T09:52:28;97393.23;;;19.06;68.41
73106;BME280;61559;50.476;15.588;2023-07-31T09:55:00;97393.70;;;19.12;68.69
73106;BME280;61559;50.476;15.588;2023-07-31T09:57:33;97394.39;;;19.17;67.97
73106;BME280;61559;50.476;15.588;2023-07-31T10:00:07;97395.52;;;19.18;67.89
73106;BME280;61559;50.476;15.588;2023-07-31T10:02:39;97396.37;;;19.22;68.48
73106;BME280;61559;50.476;15.588;2023-07-31T10:05:14;97393.31;;;19.23;68.18
73106;BME280;61559;50.476;15.588;2023-07-31T10:07:54;97390.92;;;19.23;68.10
73106;BME280;61559;50.476;15.588;2023-07-31T10:10:26;97384.19;;;19.19;66.59
73106;BME280;61559;50.476;15.588;2023-07-31T10:12:59;97379.02;;;19.13;65.76
73106;BME280;61559;50.476;15.588;2023-07-31T10:15:31;97377.80;;;19.10;65.97
73106;BME280;61559;50.476;15.588;2023-07-31T10:18:03;97378.09;;;19.07;65.54
73106;BME280;61559;50.476;15.588;2023-07-31T10:20:37;97371.73;;;19.02;65.38
73106;BME280;61559;50.476;15.588;2023-07-31T10:23:09;97375.08;;;19.00;65.42
73106;BME280;61559;50.476;15.588;2023-07-31T10:25:41;97375.92;;;19.03;65.47
73106;BME280;61559;50.476;15.588;2023-07-31T10:28:13;97373.20;;;18.97;64.69
73106;BME280;61559;50.476;15.588;2023-07-31T10:30:45;97370.77;;;18.89;65.17
73106;BME280;61559;50.476;15.588;2023-07-31T10:33:17;97367.71;;;18.90;65.95
73106;BME280;61559;50.476;15.588;2023-07-31T10:35:49;97369.71;;;18.88;65.86
73106;BME280;61559;50.476;15.588;2023-07-31T10:38:25;97370.45;;;18.86;65.93
73106;BME280;61559;50.476;15.588;2023-07-31T10:41:09;97364.73;;;18.89;66.38
73106;BME280;61559;50.476;15.588;2023-07-31T10:43:40;97369.06;;;19.02;66.66
73106;BME280;61559;50.476;15.588;2023-07-31T10:46:13;97360.77;;;19.20;66.43
73106;BME280;61559;50.476;15.588;2023-07-31T10:48:45;97353.02;;;19.39;65.60
73106;BME280;61559;50.476;15.588;2023-07-31T10:51:16;97352.38;;;19.57;65.46
73106;BME280;61559;50.476;15.588;2023-07-31T10:54:12;97351.31;;;19.74;64.54
73106;BME280;61559;50.476;15.588;2023-07-31T10:56:47;97353.43;;;19.83;64.22
73106;BME280;61559;50.476;15.588;2023-07-31T10:59:27;97352.47;;;19.88;64.09
73106;BME280;61559;50.476;15.588;2023-07-31T11:02:25;97350.91;;;19.92;64.09
73106;BME280;61559;50.476;15.588;2023-07-31T11:05:09;97340.89;;;19.91;62.45
73106;BME280;61559;50.476;15.588;2023-07-31T11:07:51;97336.47;;;19.80;61.64
73106;BME280;61559;50.476;15.588;2023-07-31T11:10:24;97333.46;;;19.71;61.96
73106;BME280;61559;50.476;15.588;2023-07-31T11:12:55;97339.05;;;19.68;61.80
73106;BME280;61559;50.476;15.588;2023-07-31T11:15:29;97334.42;;;19.67;61.03
73106;BME280;61559;50.476;15.588;2023-07-31T11:18:01;97329.20;;;19.67;61.09
73106;BME280;61559;50.476;15.588;2023-07-31T11:20:36;97328.76;;;19.70;61.88
73106;BME280;61559;50.476;15.588;2023-07-31T11:23:10;97327.42;;;19.73;61.72
73106;BME280;61559;50.476;15.588;2023-07-31T11:25:41;97320.58;;;19.78;61.43
73106;BME280;61559;50.476;15.588;2023-07-31T11:28:14;97322.88;;;19.80;61.78
73106;BME280;61559;50.476;15.588;2023-07-31T11:30:46;97313.48;;;19.84;61.73
73106;BME280;61559;50.476;15.588;2023-07-31T11:33:18;97316.25;;;19.88;61.65
73106;BME280;61559;50.476;15.588;2023-07-31T11:35:49;97311.76;;;19.97;62.29
73106;BME280;61559;50.476;15.588;2023-07-31T11:38:25;97312.37;;;20.10;61.13
73106;BME280;61559;50.476;15.588;2023-07-31T11:40:58;97310.27;;;20.15;60.13
73106;BME280;61559;50.476;15.588;2023-07-31T11:43:30;97305.35;;;20.13;59.90
73106;BME280;61559;50.476;15.588;2023-07-31T11:46:02;97308.41;;;20.14;59.45
73106;BME280;61559;50.476;15.588;2023-07-31T11:48:37;97301.54;;;20.12;60.17
73106;BME280;61559;50.476;15.588;2023-07-31T11:51:10;97301.61;;;20.07;59.48
73106;BME280;61559;50.476;15.588;2023-07-31T11:53:45;97299.73;;;20.09;60.05
73106;BME280;61559;50.476;15.588;2023-07-31T11:56:19;97297.73;;;20.10;59.81
73106;BME280;61559;50.476;15.588;2023-07-31T11:58:57;97301.46;;;20.22;61.12
73106;BME280;61559;50.476;15.588;2023-07-31T12:01:29;97289.00;;;20.40;61.06
73106;BME280;61559;50.476;15.588;2023-07-31T12:04:01;97284.20;;;20.64;60.93
73106;BME280;61559;50.476;15.588;2023-07-31T12:06:36;97282.54;;;20.89;60.43
73106;BME280;61559;50.476;15.588;2023-07-31T12:09:08;97282.38;;;21.13;58.87
73106;BME280;61559;50.476;15.588;2023-07-31T12:11:46;97280.55;;;21.29;58.28
73106;BME280;61559;50.476;15.588;2023-07-31T12:14:25;97279.04;;;21.48;57.87
73106;BME280;61559;50.476;15.588;2023-07-31T12:17:01;97275.29;;;21.63;56.32
73106;BME280;61559;50.476;15.588;2023-07-31T12:19:34;97275.80;;;21.71;56.12
73106;BME280;61559;50.476;15.588;2023-07-31T12:22:12;97274.38;;;21.84;56.83
73106;BME280;61559;50.476;15.588;2023-07-31T12:24:45;97268.81;;;21.97;55.27
73106;BME280;61559;50.476;15.588;2023-07-31T12:27:16;97273.59;;;22.00;56.13
73106;BME280;61559;50.476;15.588;2023-07-31T12:29:48;97270.16;;;22.11;56.48
73106;BME280;61559;50.476;15.588;2023-07-31T12:32:23;97268.85;;;22.14;54.31
73106;BME280;61559;50.476;15.588;2023-07-31T12:35:01;97261.70;;;22.09;55.17
73106;BME280;61559;50.476;15.588;2023-07-31T12:37:37;97253.77;;;22.07;54.53
73106;BME280;61559;50.476;15.588;2023-07-31T12:40:10;97253.20;;;22.03;55.51
73106;BME280;61559;50.476;15.588;2023-07-31T12:42:43;97248.79;;;22.11;56.05
73106;BME280;61559;50.476;15.588;2023-07-31T12:45:14;97238.69;;;22.19;55.11
73106;BME280;61559;50.476;15.588;2023-07-31T12:47:45;97232.20;;;22.25;54.96
73106;BME280;61559;50.476;15.588;2023-07-31T12:50:16;97237.16;;;22.21;53.90
73106;BME280;61559;50.476;15.588;2023-07-31T12:52:47;97230.83;;;22.18;54.26
73106;BME280;61559;50.476;15.588;2023-07-31T12:55:18;97229.09;;;22.19;55.32
73106;BME280;61559;50.476;15.588;2023-07-31T12:57:52;97226.92;;;22.27;54.89
73106;BME280;61559;50.476;15.588;2023-07-31T13:00:25;97222.08;;;22.32;55.06
73106;BME280;61559;50.476;15.588;2023-07-31T13:02:56;97219.88;;;22.43;55.12
73106;BME280;61559;50.476;15.588;2023-07-31T13:05:27;97218.01;;;22.49;54.88
73106;BME280;61559;50.476;15.588;2023-07-31T13:07:59;97217.62;;;22.55;54.94
73106;BME280;61559;50.476;15.588;2023-07-31T13:10:30;97221.30;;;22.54;54.87
73106;BME280;61559;50.476;15.588;2023-07-31T13:13:02;97213.47;;;22.46;54.18
73106;BME280;61559;50.476;15.588;2023-07-31T13:15:33;97210.88;;;22.28;54.03
73106;BME280;61559;50.476;15.588;2023-07-31T13:18:05;97208.58;;;22.16;54.42